createdAt,value
2023-05-06T00:01:39.381Z,79.95
2023-05-06T00:04:07.779Z,79.84
2023-05-06T00:06:37.262Z,79.68
2023-05-06T00:09:06.223Z,79.72
2023-05-06T00:11:34.398Z,79.92
2023-05-06T00:14:02.553Z,80.23
2023-05-06T00:16:30.978Z,80.11
2023-05-06T00:18:59.084Z,80.72
2023-05-06T00:21:27.751Z,81.12
2023-05-06T00:23:56.146Z,80.86
2023-05-06T00:26:24.400Z,81.04
2023-05-06T00:28:52.529Z,80.99
2023-05-06T00:31:20.641Z,81.18
2023-05-06T00:33:48.931Z,81.29
2023-05-06T00:36:17.577Z,81.24
2023-05-06T00:38:45.712Z,81.05
2023-05-06T00:41:13.883Z,81.24
2023-05-06T00:43:42.226Z,81.36
2023-05-06T00:46:11.782Z,81.30
2023-05-06T00:48:40.030Z,82.20
2023-05-06T00:51:08.584Z,82.21
2023-05-06T00:53:37.547Z,81.85
2023-05-06T00:56:06.374Z,81.33
2023-05-06T00:58:35.290Z,81.38
2023-05-06T01:01:03.794Z,81.21
2023-05-06T01:03:32.410Z,81.39
2023-05-06T01:06:09.706Z,81.57
2023-05-06T01:09:11.632Z,82.39
2023-05-06T01:12:04.312Z,82.35
2023-05-06T01:15:01.113Z,82.15
2023-05-06T01:17:31.990Z,82.11
2023-05-06T01:20:01.827Z,82.12
2023-05-06T01:22:31.361Z,82.00
2023-05-06T01:24:59.549Z,81.71
2023-05-06T01:27:28.625Z,81.70
2023-05-06T01:29:59.277Z,82.31
2023-05-06T01:32:40.885Z,82.37
2023-05-06T01:35:28.817Z,82.06
2023-05-06T01:38:26.491Z,82.17
2023-05-06T01:40:57.317Z,82.99
2023-05-06T01:43:32.762Z,82.81
2023-05-06T01:46:01.603Z,82.51
2023-05-06T01:48:35.043Z,82.40
2023-05-06T01:51:03.552Z,82.95
2023-05-06T01:53:33.188Z,83.17
2023-05-06T01:56:02.339Z,83.12
2023-05-06T01:58:30.576Z,83.34
2023-05-06T02:00:58.848Z,83.31
2023-05-06T02:03:27.115Z,84.29
2023-05-06T02:05:55.763Z,83.97
2023-05-06T02:08:25.254Z,83.96
2023-05-06T02:10:53.598Z,84.00
2023-05-06T02:13:22.460Z,84.08
2023-05-06T02:15:54.858Z,84.41
2023-05-06T02:18:23.786Z,84.44
2023-05-06T02:20:51.949Z,84.65
2023-05-06T02:23:20.102Z,84.95
2023-05-06T02:25:50.312Z,84.86
2023-05-06T02:28:18.588Z,85.04
2023-05-06T02:30:47.026Z,85.16
2023-05-06T02:33:15.751Z,84.97
2023-05-06T02:35:45.258Z,84.68
2023-05-06T02:38:13.511Z,84.77
2023-05-06T02:40:41.638Z,84.69
2023-05-06T02:43:09.750Z,85.06
2023-05-06T02:45:37.944Z,85.41
2023-05-06T02:48:06.435Z,85.62
2023-05-06T02:50:36.425Z,85.50
2023-05-06T02:53:04.836Z,85.48
2023-05-06T02:55:32.998Z,85.54
2023-05-06T02:58:01.140Z,85.83
2023-05-06T03:00:29.210Z,86.03
2023-05-06T03:02:57.471Z,85.86
2023-05-06T03:05:25.696Z,85.61
2023-05-06T03:07:54.156Z,85.71
2023-05-06T03:10:22.736Z,85.86
2023-05-06T03:12:51.880Z,85.91
2023-05-06T03:15:20.171Z,85.70
2023-05-06T03:17:48.467Z,85.49
2023-05-06T03:20:17.299Z,85.36
2023-05-06T03:22:50.338Z,85.34
2023-05-06T03:25:19.408Z,85.29
2023-05-06T03:27:48.028Z,85.52
2023-05-06T03:30:21.216Z,85.86
2023-05-06T03:32:50.153Z,86.37
2023-05-06T03:35:23.745Z,86.55
2023-05-06T03:37:55.750Z,86.96
2023-05-06T03:40:24.562Z,87.92
2023-05-06T03:42:53.259Z,87.80
2023-05-06T03:45:22.874Z,87.38
2023-05-06T03:47:51.931Z,87.60
2023-05-06T03:50:20.838Z,87.45
2023-05-06T03:52:49.453Z,87.40
2023-05-06T03:55:17.814Z,87.25
2023-05-06T03:57:45.984Z,87.07
2023-05-06T04:00:15.123Z,87.14
2023-05-06T04:02:47.557Z,87.29
2023-05-06T04:05:21.437Z,88.41
2023-05-06T04:07:49.548Z,88.82
2023-05-06T04:10:17.750Z,88.56
2023-05-06T04:12:48.237Z,88.35
2023-05-06T04:15:19.083Z,87.71
2023-05-06T04:17:47.397Z,87.38
2023-05-06T04:20:16.195Z,87.58
2023-05-06T04:22:44.630Z,87.20
2023-05-06T04:25:13.235Z,86.85
2023-05-06T04:27:42.191Z,86.55
2023-05-06T04:30:11.046Z,86.67
2023-05-06T04:32:40.648Z,86.49
2023-05-06T04:35:09.294Z,85.79
2023-05-06T04:37:38.368Z,85.11
2023-05-06T04:40:14.049Z,84.69
2023-05-06T04:42:43.468Z,84.16
2023-05-06T04:45:15.995Z,83.36
2023-05-06T04:47:46.492Z,82.43
2023-05-06T04:50:15.351Z,80.94
2023-05-06T04:52:44.679Z,80.42
2023-05-06T04:55:13.242Z,79.57
2023-05-06T04:57:46.012Z,78.59
2023-05-06T05:00:14.771Z,78.06
2023-05-06T05:02:43.151Z,77.61
2023-05-06T05:05:12.636Z,76.50
2023-05-06T05:07:41.893Z,74.81
2023-05-06T05:10:10.830Z,73.86
2023-05-06T05:12:40.535Z,72.59
2023-05-06T05:15:09.250Z,70.99
2023-05-06T05:17:38.138Z,69.34
2023-05-06T05:20:08.350Z,68.88
2023-05-06T05:22:37.372Z,68.50
2023-05-06T05:25:08.316Z,68.46
2023-05-06T05:27:36.873Z,66.60
2023-05-06T05:30:06.087Z,65.05
2023-05-06T05:32:35.469Z,64.10
2023-05-06T05:35:05.291Z,63.97
2023-05-06T05:37:34.798Z,63.93
2023-05-06T05:40:04.780Z,62.45
2023-05-06T05:42:33.812Z,61.53
2023-05-06T05:45:05.161Z,61.64
2023-05-06T05:47:33.987Z,61.12
2023-05-06T05:50:02.295Z,60.97
2023-05-06T05:52:31.663Z,60.63
2023-05-06T05:55:00.630Z,58.96
2023-05-06T05:57:28.853Z,58.94
2023-05-06T05:59:57.011Z,58.46
2023-05-06T06:02:25.404Z,57.97
2023-05-06T06:04:53.843Z,55.41
2023-05-06T06:07:22.500Z,54.95
2023-05-06T06:09:50.693Z,54.98
2023-05-06T06:12:19.219Z,54.75
2023-05-06T06:14:48.288Z,54.17
2023-05-06T06:17:18.732Z,53.95
2023-05-06T06:19:47.277Z,53.66
2023-05-06T06:22:15.515Z,52.96
2023-05-06T06:24:43.977Z,52.52
2023-05-06T06:27:12.435Z,52.04
2023-05-06T06:29:41.014Z,51.81
2023-05-06T06:32:09.373Z,51.93
2023-05-06T06:34:37.558Z,51.36
2023-05-06T06:37:07.413Z,50.87
2023-05-06T06:39:36.308Z,51.03
2023-05-06T06:42:05.004Z,50.48
2023-05-06T06:44:39.684Z,49.82
2023-05-06T06:47:07.821Z,50.17
2023-05-06T06:49:37.845Z,50.37
2023-05-06T06:52:06.148Z,50.63
2023-05-06T06:54:34.378Z,50.80
2023-05-06T06:57:02.534Z,50.33
2023-05-06T06:59:30.771Z,50.12
2023-05-06T07:01:58.907Z,49.64
2023-05-06T07:04:27.124Z,49.07
2023-05-06T07:06:55.251Z,48.80
2023-05-06T07:09:23.344Z,48.86
2023-05-06T07:11:51.730Z,48.44
2023-05-06T07:14:20.818Z,47.76
2023-05-06T07:16:50.140Z,47.67
2023-05-06T07:19:19.724Z,46.46
2023-05-06T07:21:48.588Z,46.14
2023-05-06T07:24:16.752Z,45.41
2023-05-06T07:26:44.928Z,44.78
2023-05-06T07:29:12.984Z,44.24
2023-05-06T07:31:41.343Z,43.17
2023-05-06T07:34:09.558Z,42.65
2023-05-06T07:36:40.967Z,41.31
2023-05-06T07:39:10.915Z,39.32
2023-05-06T07:41:39.292Z,38.07
2023-05-06T07:44:07.480Z,38.09
2023-05-06T07:46:35.823Z,37.34
2023-05-06T07:49:04.374Z,36.61
2023-05-06T07:51:33.201Z,35.49
2023-05-06T07:54:01.405Z,35.48
2023-05-06T07:56:29.531Z,35.46
2023-05-06T07:58:59.395Z,35.14
2023-05-06T08:01:29.215Z,35.46
2023-05-06T08:03:57.329Z,35.51
2023-05-06T08:06:25.448Z,35.07
2023-05-06T08:08:53.613Z,34.90
2023-05-06T08:11:21.880Z,34.87
2023-05-06T08:13:50.127Z,35.27
2023-05-06T08:16:18.359Z,35.46
2023-05-06T08:18:46.430Z,35.01
2023-05-06T08:21:14.538Z,34.85
2023-05-06T08:23:42.860Z,34.78
2023-05-06T08:26:11.236Z,34.93
2023-05-06T08:28:39.344Z,34.17
2023-05-06T08:31:07.522Z,34.46
2023-05-06T08:33:35.699Z,33.70
2023-05-06T08:36:04.193Z,33.35
2023-05-06T08:38:32.508Z,33.41
2023-05-06T08:41:08.082Z,32.73
2023-05-06T08:43:42.660Z,32.84
2023-05-06T08:46:11.584Z,33.20
2023-05-06T08:48:39.808Z,33.26
2023-05-06T08:51:09.181Z,33.03
2023-05-06T08:53:40.290Z,33.20
2023-05-06T08:56:11.633Z,32.73
2023-05-06T08:58:45.981Z,32.62
2023-05-06T09:01:16.178Z,32.36
2023-05-06T09:03:44.549Z,32.32
2023-05-06T09:06:12.627Z,32.35
2023-05-06T09:08:41.074Z,32.58
2023-05-06T09:11:27.087Z,32.60
2023-05-06T09:14:16.511Z,32.56
2023-05-06T09:16:47.161Z,32.63
2023-05-06T09:19:16.853Z,32.48
2023-05-06T09:21:48.159Z,32.38
2023-05-06T09:24:17.133Z,32.45
2023-05-06T09:26:47.104Z,32.38
2023-05-06T09:29:15.790Z,31.99
2023-05-06T09:31:46.245Z,31.97
2023-05-06T09:34:15.576Z,32.06
2023-05-06T09:36:44.792Z,31.64
2023-05-06T09:39:12.904Z,31.44
2023-05-06T09:41:41.051Z,31.23
2023-05-06T09:44:09.174Z,31.64
2023-05-06T09:46:37.413Z,31.70
2023-05-06T09:49:06.314Z,31.29
2023-05-06T09:51:34.645Z,31.44
2023-05-06T09:54:03.892Z,31.78
2023-05-06T09:56:33.148Z,31.92
2023-05-06T09:59:04.347Z,31.79
2023-05-06T10:01:37.378Z,31.14
2023-05-06T10:04:11.047Z,31.37
2023-05-06T10:06:40.920Z,31.58
2023-05-06T10:09:09.713Z,31.17
2023-05-06T10:11:38.866Z,31.39
2023-05-06T10:14:07.171Z,31.42
2023-05-06T10:16:37.096Z,31.13
2023-05-06T10:19:08.104Z,30.82
2023-05-06T10:21:40.858Z,30.44
2023-05-06T10:24:13.561Z,30.66
2023-05-06T10:26:45.611Z,30.87
2023-05-06T10:29:14.056Z,30.43
2023-05-06T10:31:52.271Z,30.03
2023-05-06T10:34:22.191Z,30.13
2023-05-06T10:36:57.826Z,29.58
2023-05-06T10:39:26.877Z,28.96
2023-05-06T10:41:55.207Z,29.45
2023-05-06T10:45:06.359Z,29.30
2023-05-06T10:47:53.060Z,29.28
2023-05-06T10:50:23.495Z,29.55
2023-05-06T10:52:55.590Z,29.26
2023-05-06T10:55:35.649Z,28.83
2023-05-06T10:58:17.144Z,29.17
2023-05-06T11:00:55.549Z,28.78
2023-05-06T11:03:24.533Z,28.56
2023-05-06T11:05:53.173Z,28.24
2023-05-06T11:08:26.162Z,28.36
2023-05-06T11:10:54.837Z,28.31
2023-05-06T11:13:28.747Z,28.48
2023-05-06T11:15:58.818Z,28.05
2023-05-06T11:18:31.978Z,27.83
2023-05-06T11:21:02.660Z,28.11
2023-05-06T11:23:43.468Z,27.70
2023-05-06T11:26:13.238Z,27.55
2023-05-06T11:28:50.538Z,27.69
2023-05-06T11:31:21.121Z,27.38
2023-05-06T11:33:52.539Z,26.98
2023-05-06T11:36:21.311Z,26.78
2023-05-06T11:38:53.302Z,26.58
2023-05-06T11:41:22.846Z,26.79
2023-05-06T11:43:52.859Z,27.34
2023-05-06T11:46:23.229Z,27.82
2023-05-06T11:48:51.874Z,27.64
2023-05-06T11:51:23.555Z,27.51
2023-05-06T11:53:53.142Z,28.37
2023-05-06T11:56:21.348Z,28.09
2023-05-06T11:58:49.663Z,27.59
2023-05-06T12:01:17.962Z,27.76
2023-05-06T12:03:46.300Z,27.72
2023-05-06T12:06:14.659Z,27.74
2023-05-06T12:08:43.410Z,28.05
2023-05-06T12:11:12.005Z,27.74
2023-05-06T12:13:40.745Z,27.57
2023-05-06T12:16:09.739Z,27.85
2023-05-06T12:18:38.488Z,28.10
2023-05-06T12:21:07.416Z,27.86
2023-05-06T12:23:35.594Z,27.04
2023-05-06T12:26:09.281Z,26.81
2023-05-06T12:28:37.411Z,26.21
2023-05-06T12:31:22.222Z,26.01
2023-05-06T12:33:50.797Z,26.22
2023-05-06T12:36:19.922Z,26.47
2023-05-06T12:39:01.649Z,25.80
2023-05-06T12:41:40.080Z,24.95
2023-05-06T12:44:37.727Z,24.68
2023-05-06T12:47:08.709Z,24.79
2023-05-06T12:49:51.190Z,24.99
2023-05-06T12:52:24.774Z,25.36
2023-05-06T12:54:53.373Z,25.26
2023-05-06T12:57:21.740Z,25.36
2023-05-06T12:59:50.118Z,25.46
2023-05-06T13:02:18.408Z,25.84
2023-05-06T13:04:47.162Z,26.21
2023-05-06T13:07:15.816Z,26.56
2023-05-06T13:09:44.713Z,26.35
2023-05-06T13:12:13.503Z,26.16
2023-05-06T13:14:41.732Z,26.23
2023-05-06T13:17:11.326Z,26.76
2023-05-06T13:19:39.988Z,27.34
2023-05-06T13:22:08.074Z,27.64
2023-05-06T13:24:36.560Z,27.61
2023-05-06T13:27:04.710Z,27.55
2023-05-06T13:29:32.926Z,27.82
2023-05-06T13:32:01.647Z,27.91
2023-05-06T13:34:30.224Z,28.34
2023-05-06T13:36:59.079Z,28.89
2023-05-06T13:39:27.331Z,28.86
2023-05-06T13:41:55.418Z,28.63
2023-05-06T13:44:24.627Z,28.84
2023-05-06T13:46:53.499Z,28.97
2023-05-06T13:49:21.810Z,29.14
2023-05-06T13:51:50.210Z,29.45
2023-05-06T13:54:18.451Z,29.92
2023-05-06T13:56:46.592Z,30.37
2023-05-06T13:59:14.759Z,30.40
2023-05-06T14:01:43.665Z,30.71
2023-05-06T14:04:12.539Z,31.15
2023-05-06T14:06:40.966Z,31.43
2023-05-06T14:09:11.895Z,31.01
2023-05-06T14:11:40.175Z,30.88
2023-05-06T14:14:08.282Z,30.75
2023-05-06T14:16:36.372Z,31.09
2023-05-06T14:19:05.898Z,31.28
2023-05-06T14:21:34.714Z,31.58
2023-05-06T14:24:05.043Z,31.25
2023-05-06T14:26:34.362Z,31.30
2023-05-06T14:29:02.534Z,31.49
2023-05-06T14:31:32.796Z,31.57
2023-05-06T14:34:02.819Z,31.95
2023-05-06T14:36:31.324Z,31.94
2023-05-06T14:38:59.447Z,32.14
2023-05-06T14:41:27.825Z,32.16
2023-05-06T14:43:56.263Z,32.32
2023-05-06T14:46:25.399Z,32.17
2023-05-06T14:48:55.278Z,32.49
2023-05-06T14:51:23.527Z,32.76
2023-05-06T14:53:51.675Z,32.98
2023-05-06T14:56:20.009Z,33.04
2023-05-06T14:58:48.042Z,33.24
2023-05-06T15:01:16.217Z,33.31
2023-05-06T15:03:45.410Z,33.18
2023-05-06T15:06:13.500Z,33.04
2023-05-06T15:08:41.706Z,33.11
2023-05-06T15:11:10.245Z,33.18
2023-05-06T15:13:38.608Z,33.30
2023-05-06T15:16:08.530Z,33.28
2023-05-06T15:18:41.753Z,33.41
2023-05-06T15:21:10.097Z,33.60
2023-05-06T15:23:38.915Z,33.46
2023-05-06T15:26:07.111Z,33.41
2023-05-06T15:28:35.796Z,33.74
2023-05-06T15:31:04.327Z,33.98
2023-05-06T15:33:32.497Z,34.21
2023-05-06T15:36:00.875Z,34.38
2023-05-06T15:38:29.147Z,34.43
2023-05-06T15:40:58.007Z,34.52
2023-05-06T15:43:35.975Z,34.56
2023-05-06T15:46:05.755Z,34.74
2023-05-06T15:48:33.932Z,34.80
2023-05-06T15:51:02.042Z,35.13
2023-05-06T15:53:30.178Z,35.20
2023-05-06T15:56:08.933Z,35.15
2023-05-06T15:58:45.619Z,35.52
2023-05-06T16:01:14.771Z,36.53
2023-05-06T16:03:44.053Z,37.68
2023-05-06T16:06:12.451Z,38.05
2023-05-06T16:08:40.642Z,37.95
2023-05-06T16:11:09.520Z,38.20
2023-05-06T16:13:37.903Z,38.45
2023-05-06T16:16:06.492Z,38.55
2023-05-06T16:18:34.991Z,38.43
2023-05-06T16:21:04.547Z,38.61
2023-05-06T16:23:32.664Z,38.47
2023-05-06T16:26:01.198Z,38.40
2023-05-06T16:28:29.388Z,38.45
2023-05-06T16:30:57.533Z,38.57
2023-05-06T16:33:25.964Z,38.67
2023-05-06T16:35:54.157Z,38.59
2023-05-06T16:38:22.294Z,38.73
2023-05-06T16:40:51.300Z,38.77
2023-05-06T16:43:19.559Z,38.59
2023-05-06T16:45:47.790Z,38.68
2023-05-06T16:48:16.043Z,38.12
2023-05-06T16:50:44.320Z,37.97
2023-05-06T16:53:12.508Z,38.25
2023-05-06T16:55:40.645Z,38.53
2023-05-06T16:58:08.837Z,38.75
2023-05-06T17:00:36.918Z,38.75
2023-05-06T17:03:05.118Z,38.66
2023-05-06T17:05:33.561Z,38.97
2023-05-06T17:08:03.644Z,39.20
2023-05-06T17:10:31.927Z,39.18
2023-05-06T17:13:00.210Z,38.92
2023-05-06T17:15:28.578Z,39.01
2023-05-06T17:17:57.247Z,38.93
2023-05-06T17:20:25.515Z,38.75
2023-05-06T17:22:53.537Z,38.67
2023-05-06T17:25:21.679Z,39.17
2023-05-06T17:27:50.062Z,39.67
2023-05-06T17:30:18.487Z,40.28
2023-05-06T17:32:46.689Z,40.48
2023-05-06T17:35:15.108Z,40.66
2023-05-06T17:37:43.523Z,41.19
2023-05-06T17:40:13.157Z,41.47
2023-05-06T17:42:41.305Z,41.44
2023-05-06T17:45:14.316Z,41.61
2023-05-06T17:47:42.489Z,42.07
2023-05-06T17:50:11.384Z,42.12
2023-05-06T17:52:39.518Z,42.44
2023-05-06T17:57:39.290Z,43.23
2023-05-06T18:00:09.376Z,43.56
2023-05-06T18:02:41.420Z,44.38
2023-05-06T18:05:10.249Z,45.85
2023-05-06T18:07:38.983Z,47.24
2023-05-06T18:10:08.025Z,48.26
2023-05-06T18:12:36.778Z,49.76
2023-05-06T18:15:06.109Z,50.75
2023-05-06T18:17:34.273Z,51.22
2023-05-06T18:20:03.119Z,51.70
2023-05-06T18:22:31.239Z,51.94
2023-05-06T18:24:59.394Z,52.32
2023-05-06T18:27:29.708Z,52.93
2023-05-06T18:29:59.390Z,53.00
2023-05-06T18:32:27.434Z,52.69
2023-05-06T18:34:55.670Z,53.04
2023-05-06T18:37:24.101Z,52.31
2023-05-06T18:39:52.325Z,52.01
2023-05-06T18:42:22.309Z,51.56
2023-05-06T18:44:53.288Z,51.63
2023-05-06T18:47:22.690Z,51.60
2023-05-06T18:49:53.388Z,51.90
2023-05-06T18:52:22.260Z,51.77
2023-05-06T18:54:50.549Z,51.78
2023-05-06T18:57:19.827Z,52.38
2023-05-06T18:59:48.046Z,52.42
2023-05-06T19:02:16.155Z,51.93
2023-05-06T19:04:44.297Z,52.25
2023-05-06T19:07:14.359Z,52.42
2023-05-06T19:09:43.845Z,52.65
2023-05-06T19:12:11.934Z,52.39
2023-05-06T19:14:40.159Z,52.34
2023-05-06T19:17:08.441Z,52.42
2023-05-06T19:19:36.728Z,52.82
2023-05-06T19:22:04.905Z,53.20
2023-05-06T19:24:33.157Z,53.26
2023-05-06T19:27:02.013Z,53.13
2023-05-06T19:29:30.182Z,53.70
2023-05-06T19:31:58.754Z,53.49
2023-05-06T19:34:26.959Z,53.42
2023-05-06T19:36:57.517Z,53.50
2023-05-06T19:39:25.877Z,53.80
2023-05-06T19:41:55.787Z,53.72
2023-05-06T19:44:24.243Z,54.46
2023-05-06T19:46:56.704Z,56.26
2023-05-06T19:49:25.010Z,57.62
2023-05-06T19:51:53.200Z,58.62
2023-05-06T19:54:24.239Z,59.29
2023-05-06T19:56:52.370Z,60.26
2023-05-06T19:59:22.745Z,61.50
2023-05-06T20:01:54.642Z,62.45
2023-05-06T20:04:22.981Z,62.66
2023-05-06T20:06:51.463Z,62.89
2023-05-06T20:09:19.808Z,62.96
2023-05-06T20:11:48.001Z,63.19
2023-05-06T20:14:16.825Z,63.74
2023-05-06T20:16:45.051Z,64.10
2023-05-06T20:19:13.498Z,64.18
2023-05-06T20:21:41.689Z,65.08
2023-05-06T20:24:09.826Z,67.14
2023-05-06T20:26:37.907Z,69.13
2023-05-06T20:29:06.061Z,70.17
2023-05-06T20:31:34.348Z,69.98
2023-05-06T20:34:02.572Z,69.57
2023-05-06T20:36:31.024Z,69.47
2023-05-06T20:39:00.833Z,70.07
2023-05-06T20:41:29.120Z,69.90
2023-05-06T20:43:57.613Z,70.64
2023-05-06T20:46:26.057Z,71.35
2023-05-06T20:48:54.216Z,71.97
2023-05-06T20:51:22.535Z,72.35
2023-05-06T20:53:52.272Z,72.50
2023-05-06T20:56:23.085Z,72.07
2023-05-06T20:58:52.624Z,72.13
2023-05-06T21:01:23.811Z,72.35
2023-05-06T21:03:52.192Z,72.75
2023-05-06T21:06:20.944Z,73.03
2023-05-06T21:08:49.111Z,73.32
2023-05-06T21:11:17.218Z,73.96
2023-05-06T21:13:45.342Z,73.79
2023-05-06T21:16:13.517Z,73.83
2023-05-06T21:18:42.034Z,74.64
2023-05-06T21:21:10.778Z,76.72
2023-05-06T21:23:38.862Z,79.14
2023-05-06T21:26:06.915Z,79.90
2023-05-06T21:28:35.056Z,79.46
2023-05-06T21:31:03.546Z,80.13
2023-05-06T21:33:31.660Z,81.01
2023-05-06T21:36:00.195Z,80.09
2023-05-06T21:38:28.472Z,80.40
2023-05-06T21:40:56.652Z,80.54
2023-05-06T21:43:24.739Z,80.92
2023-05-06T21:45:53.083Z,81.24
2023-05-06T21:48:21.314Z,80.77
2023-05-06T21:50:49.306Z,81.32
2023-05-06T21:53:17.443Z,80.52
2023-05-06T21:55:45.673Z,79.76
2023-05-06T21:58:13.764Z,79.47
2023-05-06T22:00:42.052Z,79.20
2023-05-06T22:03:10.332Z,79.62
2023-05-06T22:05:38.793Z,80.26
2023-05-06T22:08:06.992Z,80.75
2023-05-06T22:10:35.407Z,81.72
2023-05-06T22:13:04.028Z,82.37
2023-05-06T22:15:32.307Z,82.84
2023-05-06T22:18:00.621Z,82.97
2023-05-06T22:20:29.272Z,82.90
2023-05-06T22:22:57.391Z,82.48
2023-05-06T22:25:25.536Z,82.40
2023-05-06T22:27:53.765Z,82.33
2023-05-06T22:30:21.896Z,82.33
2023-05-06T22:32:50.073Z,82.44
2023-05-06T22:35:18.277Z,82.36
2023-05-06T22:37:46.671Z,82.38
2023-05-06T22:40:14.862Z,82.59
2023-05-06T22:42:43.490Z,82.58
2023-05-06T22:45:11.990Z,82.21
2023-05-06T22:47:40.937Z,82.08
2023-05-06T22:50:09.673Z,82.05
2023-05-06T22:52:38.181Z,81.75
2023-05-06T22:55:10.002Z,81.75
2023-05-06T22:57:38.362Z,81.98
2023-05-06T23:00:08.467Z,82.19
2023-05-06T23:02:37.344Z,82.34
2023-05-06T23:05:06.716Z,82.76
2023-05-06T23:07:35.491Z,83.33
2023-05-06T23:10:03.686Z,84.46
2023-05-06T23:12:35.430Z,84.19
2023-05-06T23:15:03.825Z,83.94
2023-05-06T23:17:32.174Z,84.00
2023-05-06T23:20:00.343Z,84.12
2023-05-06T23:22:28.800Z,83.95
2023-05-06T23:24:56.994Z,84.07
2023-05-06T23:27:25.113Z,84.25
2023-05-06T23:29:53.397Z,84.50
2023-05-06T23:32:21.476Z,85.08
2023-05-06T23:34:49.647Z,85.23
2023-05-06T23:37:17.843Z,85.07
2023-05-06T23:39:47.724Z,85.13
2023-05-06T23:42:16.233Z,85.30
2023-05-06T23:44:44.309Z,85.18
2023-05-06T23:47:12.419Z,84.81
2023-05-06T23:49:40.753Z,84.62
2023-05-06T23:52:08.909Z,84.60
2023-05-06T23:54:37.290Z,84.43
2023-05-06T23:57:05.444Z,84.54
2023-05-06T23:59:33.592Z,84.66
